Time;durP1;ratioP1;P1;durP2;ratioP2;P2;SDS_P1;SDS_P2;PMS_P1;PMS_P2;Temp;Humidity;BMP_temperature;BMP_pressure;BME280_temperature;BME280_humidity;BME280_pressure;Samples;Min_cycle;Max_cycle;Signal;HPM_P1;HPM_P2
2022/06/04 00:02:17;;;;;;;;;;;;;;;;;;5043386;27;88384;-45
2022/06/04 00:04:43;;;;;;;;;;;;;;;;;;5043579;27;86455;-45
2022/06/04 00:07:09;;;;;;;;;;;;;;;;;;5043549;27;87151;-45
2022/06/04 00:09:35;;;;;;;;;;;;;;;;;;5043375;27;87248;-45
2022/06/04 00:17:30;;;;;;;;;;;;;;;;;;5046016;28;87001;-45
2022/06/04 00:19:56;;;;;;;;;;;;;;;;;;5043366;27;86969;-45
2022/06/04 00:22:22;;;;;;;;;;;;;;;;;;5043429;27;87129;-46
2022/06/04 00:24:48;;;;;;;;;;;;;;;;;;5043041;27;88041;-45
2022/06/04 00:27:14;;;;;;;;;;;;;;;;;;5043324;27;87201;-45
2022/06/04 00:29:39;;;;;;;;;;;;;;;;;;5043878;27;86288;-45
2022/06/04 00:32:06;;;;;;;;;;;;;;;;;;5042758;27;88030;-45
2022/06/04 00:34:32;;;;;;;;;;;;;;;;;;5042390;27;87146;-45
2022/06/04 00:36:58;;;;;;;;;;;;;;;;;;5042567;27;87946;-46
2022/06/04 00:39:24;;;;;;;;;;;;;;;;;;5045832;27;87959;-44
2022/06/04 00:41:51;;;;;;;;;;;;;;;;;;5043204;27;87007;-46
2022/06/04 00:44:19;;;;;;;;;;;;;;;;;;5042607;28;89548;-45
2022/06/04 00:46:47;;;;;;;;;;;;;;;;;;5042766;27;87029;-47
2022/06/04 00:49:13;;;;;;;;;;;;;;;;;;5042768;27;88549;-45
2022/06/04 00:51:39;;;;;;;;;;;;;;;;;;5041935;27;88157;-46
2022/06/04 00:54:04;;;;;;;;;;;;;;;;;;5043408;27;86482;-46
2022/06/04 00:56:30;;;;;;;;;;;;;;;;;;5042943;27;86978;-45
2022/06/04 00:58:56;;;;;;;;;;;;;;;;;;5042550;27;87910;-45
2022/06/04 01:01:22;;;;;;;;;;;;;;;;;;5044943;27;88131;-45
2022/06/04 01:03:49;;;;;;;;;;;;;;;;;;5042467;27;88000;-45
2022/06/04 01:06:15;;;;;;;;;;;;;;;;;;5042663;27;87081;-45
2022/06/04 01:08:41;;;;;;;;;;;;;;;;;;5042775;27;86931;-46
2022/06/04 01:11:07;;;;;;;;;;;;;;;;;;5042314;27;87996;-45
2022/06/04 01:13:33;;;;;;;;;;;;;;;;;;5042533;27;87252;-45
2022/06/04 01:15:58;;;;;;;;;;;;;;;;;;5042511;27;87089;-46
2022/06/04 01:18:24;;;;;;;;;;;;;;;;;;5042827;27;87323;-45
2022/06/04 01:20:50;;;;;;;;;;;;;;;;;;5045406;27;87299;-45
2022/06/04 01:23:16;;;;;;;;;;;;;;;;;;5042238;27;87837;-45
2022/06/04 01:25:42;;;;;;;;;;;;;;;;;;5041850;27;88235;-45
2022/06/04 01:28:08;;;;;;;;;;;;;;;;;;5042585;27;87694;-46
2022/06/04 01:30:34;;;;;;;;;;;;;;;;;;5041609;27;88250;-45
2022/06/04 01:33:00;;;;;;;;;;;;;;;;;;5042236;27;87186;-46
2022/06/04 01:35:26;;;;;;;;;;;;;;;;;;5042551;27;87429;-45
2022/06/04 01:37:52;;;;;;;;;;;;;;;;;;5041782;27;89566;-46
2022/06/04 01:43:02;;;;;;;;;;;;;;;;;;5044911;28;86276;-44
2022/06/04 01:45:29;;;;;;;;;;;;;;;;;;5042937;27;87212;-45
2022/06/04 01:47:55;;;;;;;;;;;;;;;;;;5045748;28;88542;-45
2022/06/04 01:50:21;;;;;;;;;;;;;;;;;;5044623;27;89154;-45
2022/06/04 01:52:47;;;;;;;;;;;;;;;;;;5045535;27;87031;-45
2022/06/04 01:55:14;;;;;;;;;;;;;;;;;;5045951;27;86883;-45
2022/06/04 01:57:40;;;;;;;;;;;;;;;;;;5044847;28;89626;-46
2022/06/04 02:00:05;;;;;;;;;;;;;;;;;;5045473;27;87211;-45
2022/06/04 02:02:31;;;;;;;;;;;;;;;;;;5045585;27;87075;-45
2022/06/04 02:04:57;;;;;;;;;;;;;;;;;;5048309;27;87857;-45
2022/06/04 02:07:32;;;;;;;;;;;;;;;;;;5045786;27;86773;-45
2022/06/04 02:09:58;;;;;;;;;;;;;;;;;;5044996;27;89917;-47
2022/06/04 02:12:24;;;;;;;;;;;;;;;;;;5045213;27;87064;-45
2022/06/04 02:14:50;;;;;;;;;;;;;;;;;;5044884;27;88055;-45
2022/06/04 02:17:16;;;;;;;;;;;;;;;;;;5045131;27;87102;-44
2022/06/04 02:19:42;;;;;;;;;;;;;;;;;;5045053;27;87205;-45
2022/06/04 02:22:08;;;;;;;;;;;;;;;;;;5045047;27;87422;-45
2022/06/04 02:24:33;;;;;;;;;;;;;;;;;;5044782;27;88140;-45
2022/06/04 02:27:01;;;;;;;;;;;;;;;;;;5047934;27;87194;-46
2022/06/04 02:29:27;;;;;;;;;;;;;;;;;;5044562;27;89327;-45
2022/06/04 02:31:52;;;;;;;;;;;;;;;;;;5045351;27;86485;-45
2022/06/04 02:34:18;;;;;;;;;;;;;;;;;;5045228;27;86981;-45
2022/06/04 02:36:44;;;;;;;;;;;;;;;;;;5044755;27;87642;-45
2022/06/04 02:39:10;;;;;;;;;;;;;;;;;;5044478;27;88139;-45
2022/06/04 02:41:36;;;;;;;;;;;;;;;;;;5044523;27;87839;-45
2022/06/04 02:44:02;;;;;;;;;;;;;;;;;;5044782;27;87918;-45
2022/06/04 02:46:28;;;;;;;;;;;;;;;;;;5044735;27;87342;-46
2022/06/04 02:48:58;;;;;;;;;;;;;;;;;;5047492;27;87001;-46
2022/06/04 02:51:26;;;;;;;;;;;;;;;;;;5044455;27;87273;-45
2022/06/04 02:53:52;;;;;;;;;;;;;;;;;;5044612;27;88443;-46
2022/06/04 02:56:18;;;;;;;;;;;;;;;;;;5044374;27;86428;-45
2022/06/04 02:58:44;;;;;;;;;;;;;;;;;;5045027;27;87204;-45
2022/06/04 03:01:10;;;;;;;;;;;;;;;;;;5044742;27;87013;-45
2022/06/04 03:03:36;;;;;;;;;;;;;;;;;;5043519;28;89341;-45
2022/06/04 03:06:01;;;;;;;;;;;;;;;;;;5044234;27;87327;-45
2022/06/04 03:08:27;;;;;;;;;;;;;;;;;;5044617;27;87129;-46
2022/06/04 03:10:53;;;;;;;;;;;;;;;;;;5046749;27;87650;-45
2022/06/04 03:13:20;;;;;;;;;;;;;;;;;;5044299;27;87241;-45
2022/06/04 03:15:46;;;;;;;;;;;;;;;;;;5044259;27;87990;-45
2022/06/04 03:18:13;;;;;;;;;;;;;;;;;;5044176;27;87234;-44
2022/06/04 03:20:39;;;;;;;;;;;;;;;;;;5044674;28;87043;-45
2022/06/04 03:23:06;;;;;;;;;;;;;;;;;;5043991;27;87248;-45
2022/06/04 03:25:32;;;;;;;;;;;;;;;;;;5044106;27;87116;-45
2022/06/04 03:27:58;;;;;;;;;;;;;;;;;;5043753;27;87955;-45
2022/06/04 03:30:26;;;;;;;;;;;;;;;;;;5046765;27;87920;-45
2022/06/04 03:32:52;;;;;;;;;;;;;;;;;;5044025;28;88607;-45
2022/06/04 03:35:17;;;;;;;;;;;;;;;;;;5043979;27;88124;-46
2022/06/04 03:37:43;;;;;;;;;;;;;;;;;;5044193;27;87263;-45
2022/06/04 03:40:09;;;;;;;;;;;;;;;;;;5043926;27;86991;-44
2022/06/04 03:42:35;;;;;;;;;;;;;;;;;;5043656;27;87972;-46
2022/06/04 03:45:01;;;;;;;;;;;;;;;;;;5044551;27;86490;-45
2022/06/04 03:47:27;;;;;;;;;;;;;;;;;;5044202;27;87030;-45
2022/06/04 03:49:54;;;;;;;;;;;;;;;;;;5043527;28;87984;-46
2022/06/04 03:52:19;;;;;;;;;;;;;;;;;;5045998;28;88076;-46
2022/06/04 03:54:54;;;;;;;;;;;;;;;;;;5043359;27;88119;-45
2022/06/04 03:57:38;;;;;;;;;;;;;;;;;;5043552;28;86994;-45
2022/06/04 04:00:06;;;;;;;;;;;;;;;;;;5043568;27;88646;-45
2022/06/04 04:02:32;;;;;;;;;;;;;;;;;;5041972;28;91204;-45
2022/06/04 04:04:58;;;;;;;;;;;;;;;;;;5044137;27;87789;-45
2022/06/04 04:07:24;;;;;;;;;;;;;;;;;;5043468;27;87076;-46
2022/06/04 04:09:50;;;;;;;;;;;;;;;;;;5043139;27;87246;-45
2022/06/04 04:12:16;;;;;;;;;;;;;;;;;;5043531;27;87113;-45
2022/06/04 04:14:42;;;;;;;;;;;;;;;;;;5045920;27;88560;-45
2022/06/04 04:17:09;;;;;;;;;;;;;;;;;;5042824;27;87829;-45
2022/06/04 04:19:35;;;;;;;;;;;;;;;;;;5043156;28;88325;-45
2022/06/04 04:22:01;;;;;;;;;;;;;;;;;;5042782;27;88012;-45
2022/06/04 04:24:26;;;;;;;;;;;;;;;;;;5043426;27;87004;-45
2022/06/04 04:26:53;;;;;;;;;;;;;;;;;;5043611;27;87171;-46
2022/06/04 04:29:18;;;;;;;;;;;;;;;;;;5043156;27;87948;-45
2022/06/04 04:31:44;;;;;;;;;;;;;;;;;;5043174;27;87321;-45
2022/06/04 04:34:10;;;;;;;;;;;;;;;;;;5043788;27;86767;-45
2022/06/04 04:36:36;;;;;;;;;;;;;;;;;;5045549;27;88105;-45
2022/06/04 04:39:02;;;;;;;;;;;;;;;;;;5043308;27;87078;-45
2022/06/04 04:41:28;;;;;;;;;;;;;;;;;;5042085;27;88116;-45
2022/06/04 04:43:54;;;;;;;;;;;;;;;;;;5043192;27;87141;-46
2022/06/04 04:46:19;;;;;;;;;;;;;;;;;;5043148;27;87037;-45
2022/06/04 04:48:45;;;;;;;;;;;;;;;;;;5042577;27;88252;-45
2022/06/04 04:51:12;;;;;;;;;;;;;;;;;;5042456;27;87216;-45
2022/06/04 04:53:38;;;;;;;;;;;;;;;;;;5042925;27;86969;-46
2022/06/04 04:56:03;;;;;;;;;;;;;;;;;;5042141;28;89140;-45
2022/06/04 04:58:29;;;;;;;;;;;;;;;;;;5046327;27;86607;-44
2022/06/04 05:00:55;;;;;;;;;;;;;;;;;;5042679;27;87192;-46
2022/06/04 05:03:21;;;;;;;;;;;;;;;;;;5042792;27;87126;-46
2022/06/04 05:05:47;;;;;;;;;;;;;;;;;;5041953;27;88309;-46
2022/06/04 05:08:13;;;;;;;;;;;;;;;;;;5042353;27;87756;-45
2022/06/04 05:10:39;;;;;;;;;;;;;;;;;;5042763;27;86936;-47
2022/06/04 05:13:05;;;;;;;;;;;;;;;;;;5042417;27;88293;-46
2022/06/04 05:15:31;;;;;;;;;;;;;;;;;;5042294;27;87966;-45
2022/06/04 05:17:57;;;;;;;;;;;;;;;;;;5042947;27;86935;-46
2022/06/04 05:20:23;;;;;;;;;;;;;;;;;;5046940;27;87100;-46
2022/06/04 05:22:49;;;;;;;;;;;;;;;;;;5046369;27;86409;-46
2022/06/04 05:25:15;;;;;;;;;;;;;;;;;;5046051;27;87074;-44
2022/06/04 05:27:40;;;;;;;;;;;;;;;;;;5045728;27;88223;-45
2022/06/04 05:30:06;;;;;;;;;;;;;;;;;;5045599;27;88442;-46
2022/06/04 05:32:32;;;;;;;;;;;;;;;;;;5046122;27;87893;-45
2022/06/04 05:34:58;;;;;;;;;;;;;;;;;;5045950;27;87959;-46
2022/06/04 05:37:24;;;;;;;;;;;;;;;;;;5045896;27;86910;-45
2022/06/04 05:39:50;;;;;;;;;;;;;;;;;;5048749;27;87097;-45
2022/06/04 05:42:16;;;;;;;;;;;;;;;;;;5045704;27;87227;-46
2022/06/04 05:44:42;;;;;;;;;;;;;;;;;;5045881;27;87101;-45
2022/06/04 05:47:07;;;;;;;;;;;;;;;;;;5046027;27;87752;-45
2022/06/04 05:49:33;;;;;;;;;;;;;;;;;;5046028;27;87191;-45
2022/06/04 05:51:59;;;;;;;;;;;;;;;;;;5045356;27;86976;-45
2022/06/04 05:54:25;;;;;;;;;;;;;;;;;;5044877;27;88824;-45
2022/06/04 05:56:51;;;;;;;;;;;;;;;;;;5045815;27;87246;-45
2022/06/04 05:59:17;;;;;;;;;;;;;;;;;;5045450;27;87253;-45
2022/06/04 06:01:43;;;;;;;;;;;;;;;;;;5048265;27;87837;-45
2022/06/04 06:04:09;;;;;;;;;;;;;;;;;;5045296;27;88369;-46
2022/06/04 06:06:34;;;;;;;;;;;;;;;;;;5044853;27;88644;-45
2022/06/04 06:09:01;;;;;;;;;;;;;;;;;;5045711;27;87304;-44
2022/06/04 06:11:26;;;;;;;;;;;;;;;;;;5045853;27;88293;-45
2022/06/04 06:13:52;;;;;;;;;;;;;;;;;;5045082;27;88015;-45
2022/06/04 06:16:18;;;;;;;;;;;;;;;;;;5045318;28;87151;-47
2022/06/04 06:18:44;;;;;;;;;;;;;;;;;;5044733;27;87973;-46
2022/06/04 06:21:10;;;;;;;;;;;;;;;;;;5044551;27;88026;-45
2022/06/04 06:23:36;;;;;;;;;;;;;;;;;;5048205;27;87005;-45
2022/06/04 06:26:03;;;;;;;;;;;;;;;;;;5045163;27;87991;-46
2022/06/04 06:28:29;;;;;;;;;;;;;;;;;;5045350;27;87110;-45
2022/06/04 06:30:55;;;;;;;;;;;;;;;;;;5044595;27;88424;-46
2022/06/04 06:33:21;;;;;;;;;;;;;;;;;;5044497;28;88036;-45
2022/06/04 06:35:47;;;;;;;;;;;;;;;;;;5045322;27;86471;-45
2022/06/04 06:38:13;;;;;;;;;;;;;;;;;;5045253;27;87117;-45
2022/06/04 06:40:39;;;;;;;;;;;;;;;;;;5044652;27;88060;-46
2022/06/04 06:43:05;;;;;;;;;;;;;;;;;;5044446;27;88200;-45
2022/06/04 06:45:32;;;;;;;;;;;;;;;;;;5047786;27;87085;-45
2022/06/04 06:47:57;;;;;;;;;;;;;;;;;;5044972;27;87241;-46
2022/06/04 06:50:23;;;;;;;;;;;;;;;;;;5044650;27;87017;-46
2022/06/04 06:52:49;;;;;;;;;;;;;;;;;;5044147;27;89533;-45
2022/06/04 06:55:15;;;;;;;;;;;;;;;;;;5044663;27;87169;-45
2022/06/04 06:57:41;;;;;;;;;;;;;;;;;;5044850;27;87188;-45
2022/06/04 07:00:07;;;;;;;;;;;;;;;;;;5044921;27;87185;-46
2022/06/04 07:02:33;;;;;;;;;;;;;;;;;;5044755;27;87147;-46
2022/06/04 07:04:59;;;;;;;;;;;;;;;;;;5044219;27;88171;-45
2022/06/04 07:07:25;;;;;;;;;;;;;;;;;;5046214;27;90748;-46
2022/06/04 07:09:51;;;;;;;;;;;;;;;;;;5044357;28;89622;-45
2022/06/04 07:12:17;;;;;;;;;;;;;;;;;;5043775;27;89266;-46
2022/06/04 07:14:43;;;;;;;;;;;;;;;;;;5044266;27;87212;-45
2022/06/04 07:17:09;;;;;;;;;;;;;;;;;;5044530;27;87000;-45
2022/06/04 07:19:35;;;;;;;;;;;;;;;;;;5043849;27;88303;-46
2022/06/04 07:22:01;;;;;;;;;;;;;;;;;;5044548;27;87204;-46
2022/06/04 07:24:27;;;;;;;;;;;;;;;;;;5044897;27;86997;-45
2022/06/04 07:26:53;;;;;;;;;;;;;;;;;;5043712;27;89213;-45
2022/06/04 07:29:19;;;;;;;;;;;;;;;;;;5047239;27;86906;-45
2022/06/04 07:31:44;;;;;;;;;;;;;;;;;;5043198;27;89355;-45
2022/06/04 07:34:10;;;;;;;;;;;;;;;;;;5044040;27;87078;-46
2022/06/04 07:36:36;;;;;;;;;;;;;;;;;;5044093;27;88277;-46
2022/06/04 07:39:02;;;;;;;;;;;;;;;;;;5044007;27;87685;-45
2022/06/04 07:41:28;;;;;;;;;;;;;;;;;;5043967;27;86983;-45
2022/06/04 07:43:54;;;;;;;;;;;;;;;;;;5042913;27;86945;-45
2022/06/04 07:46:20;;;;;;;;;;;;;;;;;;5043726;27;88004;-45
2022/06/04 07:48:46;;;;;;;;;;;;;;;;;;5047419;27;86510;-45
2022/06/04 07:51:12;;;;;;;;;;;;;;;;;;5042917;28;88101;-46
2022/06/04 07:53:38;;;;;;;;;;;;;;;;;;5043695;27;87255;-44
2022/06/04 07:56:04;;;;;;;;;;;;;;;;;;5043355;27;87962;-44
2022/06/04 07:58:29;;;;;;;;;;;;;;;;;;5043541;27;88016;-45
2022/06/04 08:00:55;;;;;;;;;;;;;;;;;;5043742;27;87199;-46
2022/06/04 08:03:21;;;;;;;;;;;;;;;;;;5043663;27;87091;-45
2022/06/04 08:05:47;;;;;;;;;;;;;;;;;;5042992;27;87982;-45
2022/06/04 08:08:13;;;;;;;;;;;;;;;;;;5043546;27;87896;-44
2022/06/04 08:10:39;;;;;;;;;;;;;;;;;;5046262;27;87046;-45
2022/06/04 08:13:09;;;;;;;;;;;;;;;;;;5044121;27;86477;-45
2022/06/04 08:15:34;;;;;;;;;;;;;;;;;;5043408;28;86896;-45
2022/06/04 08:18:00;;;;;;;;;;;;;;;;;;5042993;27;87972;-45
2022/06/04 08:20:27;;;;;;;;;;;;;;;;;;5041857;28;88057;-45
2022/06/04 08:22:53;;;;;;;;;;;;;;;;;;5043023;27;88217;-46
2022/06/04 08:25:18;;;;;;;;;;;;;;;;;;5042971;27;87830;-45
2022/06/04 08:27:44;;;;;;;;;;;;;;;;;;5043335;27;87103;-45
2022/06/04 08:30:10;;;;;;;;;;;;;;;;;;5043251;27;86996;-44
2022/06/04 08:32:36;;;;;;;;;;;;;;;;;;5045898;27;87950;-48
2022/06/04 08:35:02;;;;;;;;;;;;;;;;;;5042822;28;87273;-46
2022/06/04 08:37:28;;;;;;;;;;;;;;;;;;5043063;27;87716;-45
2022/06/04 08:39:54;;;;;;;;;;;;;;;;;;5043251;27;87187;-45
2022/06/04 08:42:20;;;;;;;;;;;;;;;;;;5043196;28;86957;-45
2022/06/04 08:44:46;;;;;;;;;;;;;;;;;;5042080;27;89115;-45
2022/06/04 08:47:12;;;;;;;;;;;;;;;;;;5042990;27;87194;-46
2022/06/04 08:49:39;;;;;;;;;;;;;;;;;;5042624;27;88223;-45
2022/06/04 08:52:05;;;;;;;;;;;;;;;;;;5042046;28;89310;-46
2022/06/04 08:57:34;;;;;;;;;;;;;;;;;;5041677;28;87194;-46
2022/06/04 09:00:00;;;;;;;;;;;;;;;;;;5042357;27;87292;-45
2022/06/04 09:02:25;;;;;;;;;;;;;;;;;;5043243;27;87040;-45
2022/06/04 09:04:52;;;;;;;;;;;;;;;;;;5042471;27;88312;-45
2022/06/04 09:07:18;;;;;;;;;;;;;;;;;;5042305;28;87182;-45
2022/06/04 09:09:43;;;;;;;;;;;;;;;;;;5042331;27;88161;-45
2022/06/04 09:12:09;;;;;;;;;;;;;;;;;;5042528;27;87987;-45
2022/06/04 09:14:35;;;;;;;;;;;;;;;;;;5042539;27;87111;-45
2022/06/04 09:17:01;;;;;;;;;;;;;;;;;;5045322;27;87065;-45
2022/06/04 09:19:27;;;;;;;;;;;;;;;;;;5042751;27;87210;-46
2022/06/04 09:21:53;;;;;;;;;;;;;;;;;;5042349;27;87169;-45
2022/06/04 09:24:19;;;;;;;;;;;;;;;;;;5042370;27;88114;-45
2022/06/04 09:26:44;;;;;;;;;;;;;;;;;;5043069;27;86590;-46
2022/06/04 09:29:10;;;;;;;;;;;;;;;;;;5042633;27;86991;-45
2022/06/04 09:31:36;;;;;;;;;;;;;;;;;;5041982;27;87510;-45
2022/06/04 09:34:02;;;;;;;;;;;;;;;;;;5041708;27;88030;-46
2022/06/04 09:36:28;;;;;;;;;;;;;;;;;;5044716;27;89335;-45
2022/06/04 09:38:54;;;;;;;;;;;;;;;;;;5042209;27;87138;-45
2022/06/04 09:41:20;;;;;;;;;;;;;;;;;;5042412;27;87012;-45
2022/06/04 09:43:46;;;;;;;;;;;;;;;;;;5042004;27;88122;-46
2022/06/04 09:46:13;;;;;;;;;;;;;;;;;;5040873;28;87131;-46
2022/06/04 09:48:39;;;;;;;;;;;;;;;;;;5042132;27;88266;-45
2022/06/04 09:51:06;;;;;;;;;;;;;;;;;;5042098;28;87228;-45
2022/06/04 09:53:32;;;;;;;;;;;;;;;;;;5041834;28;87166;-44
2022/06/04 09:55:58;;;;;;;;;;;;;;;;;;5041958;27;87542;-45
2022/06/04 09:58:24;;;;;;;;;;;;;;;;;;5043677;28;90211;-45
2022/06/04 10:00:50;;;;;;;;;;;;;;;;;;5042174;27;87954;-45
2022/06/04 10:03:16;;;;;;;;;;;;;;;;;;5042008;27;88192;-45
2022/06/04 10:05:42;;;;;;;;;;;;;;;;;;5042089;27;87221;-46
2022/06/04 10:08:08;;;;;;;;;;;;;;;;;;5044832;27;88302;-45
2022/06/04 10:10:34;;;;;;;;;;;;;;;;;;5045101;27;88153;-46
2022/06/04 10:15:44;;;;;;;;;;;;;;;;;;5043358;28;86317;-45
2022/06/04 10:18:10;;;;;;;;;;;;;;;;;;5044972;27;88419;-45
2022/06/04 10:20:36;;;;;;;;;;;;;;;;;;5048102;27;87120;-45
2022/06/04 10:23:02;;;;;;;;;;;;;;;;;;5044404;27;88942;-45
2022/06/04 10:25:28;;;;;;;;;;;;;;;;;;5045251;27;87139;-45
2022/06/04 10:27:53;;;;;;;;;;;;;;;;;;5045140;27;86934;-46
2022/06/04 10:30:19;;;;;;;;;;;;;;;;;;5044830;27;87861;-46
2022/06/04 10:32:46;;;;;;;;;;;;;;;;;;5045021;27;87041;-46
2022/06/04 10:35:11;;;;;;;;;;;;;;;;;;5044990;27;88441;-45
2022/06/04 10:37:37;;;;;;;;;;;;;;;;;;5044694;27;87101;-45
2022/06/04 10:40:03;;;;;;;;;;;;;;;;;;5045436;27;86447;-45
2022/06/04 10:42:29;;;;;;;;;;;;;;;;;;5047469;27;87109;-46
2022/06/04 10:44:55;;;;;;;;;;;;;;;;;;5044919;27;87022;-46
2022/06/04 10:47:21;;;;;;;;;;;;;;;;;;5044292;27;88074;-45
2022/06/04 10:49:47;;;;;;;;;;;;;;;;;;5044679;27;87977;-45
2022/06/04 10:52:13;;;;;;;;;;;;;;;;;;5044538;27;87326;-45
2022/06/04 10:54:39;;;;;;;;;;;;;;;;;;5044945;27;86992;-45
2022/06/04 10:57:05;;;;;;;;;;;;;;;;;;5044264;27;88016;-45
2022/06/04 10:59:31;;;;;;;;;;;;;;;;;;5044666;27;87172;-45
2022/06/04 11:01:57;;;;;;;;;;;;;;;;;;5044712;27;86967;-45
2022/06/04 11:04:23;;;;;;;;;;;;;;;;;;5047819;27;87113;-46
2022/06/04 11:06:49;;;;;;;;;;;;;;;;;;5044640;27;87473;-45
2022/06/04 11:09:14;;;;;;;;;;;;;;;;;;5043953;27;89243;-45
2022/06/04 11:11:40;;;;;;;;;;;;;;;;;;5043846;27;88202;-45
2022/06/04 11:14:06;;;;;;;;;;;;;;;;;;5044004;27;88565;-45
2022/06/04 11:16:33;;;;;;;;;;;;;;;;;;5044009;27;88033;-45
2022/06/04 11:18:59;;;;;;;;;;;;;;;;;;5043884;27;87130;-46
2022/06/04 11:21:25;;;;;;;;;;;;;;;;;;5044337;27;87588;-46
2022/06/04 11:23:51;;;;;;;;;;;;;;;;;;5044253;27;87057;-45
2022/06/04 11:26:17;;;;;;;;;;;;;;;;;;5047131;27;87064;-45
2022/06/04 11:28:43;;;;;;;;;;;;;;;;;;5044251;27;87841;-47
2022/06/04 11:31:09;;;;;;;;;;;;;;;;;;5044101;27;87168;-45
2022/06/04 11:33:35;;;;;;;;;;;;;;;;;;5043758;27;88631;-45
2022/06/04 11:36:01;;;;;;;;;;;;;;;;;;5043087;27;88926;-45
2022/06/04 11:38:27;;;;;;;;;;;;;;;;;;5044317;27;87210;-46
2022/06/04 11:40:53;;;;;;;;;;;;;;;;;;5044094;27;86976;-45
2022/06/04 11:43:19;;;;;;;;;;;;;;;;;;5043582;27;88421;-47
2022/06/04 11:45:45;;;;;;;;;;;;;;;;;;5046910;27;87289;-45
2022/06/04 11:48:10;;;;;;;;;;;;;;;;;;5043707;27;88292;-45
2022/06/04 11:50:37;;;;;;;;;;;;;;;;;;5043475;27;87008;-46
2022/06/04 11:53:02;;;;;;;;;;;;;;;;;;5044563;27;86894;-45
2022/06/04 11:55:29;;;;;;;;;;;;;;;;;;5043534;27;87795;-46
2022/06/04 11:57:55;;;;;;;;;;;;;;;;;;5043529;27;87011;-46
2022/06/04 12:00:21;;;;;;;;;;;;;;;;;;5043157;27;87884;-44
2022/06/04 12:02:47;;;;;;;;;;;;;;;;;;5043342;27;87987;-46
2022/06/04 12:05:13;;;;;;;;;;;;;;;;;;5043676;27;87162;-45
2022/06/04 12:07:39;;;;;;;;;;;;;;;;;;5046312;27;86958;-45
2022/06/04 12:10:04;;;;;;;;;;;;;;;;;;5043485;27;87140;-45
2022/06/04 12:12:30;;;;;;;;;;;;;;;;;;5043182;27;87029;-45
2022/06/04 12:14:56;;;;;;;;;;;;;;;;;;5043277;27;87653;-45
2022/06/04 12:17:22;;;;;;;;;;;;;;;;;;5044142;27;86569;-45
2022/06/04 12:25:17;;;;;;;;;;;;;;;;;;5040243;28;87952;-45
2022/06/04 12:27:43;;;;;;;;;;;;;;;;;;5043609;27;87948;-45
2022/06/04 12:30:09;;;;;;;;;;;;;;;;;;5044760;28;89262;-45
2022/06/04 12:32:35;;;;;;;;;;;;;;;;;;5043485;27;87029;-45
2022/06/04 12:35:04;;;;;;;;;;;;;;;;;;5042903;27;87338;-45
2022/06/04 12:37:30;;;;;;;;;;;;;;;;;;5042978;27;87164;-46
2022/06/04 12:39:56;;;;;;;;;;;;;;;;;;5043419;27;86960;-45
2022/06/04 12:42:22;;;;;;;;;;;;;;;;;;5043286;27;87752;-46
2022/06/04 12:44:47;;;;;;;;;;;;;;;;;;5043270;27;87064;-45
2022/06/04 12:47:13;;;;;;;;;;;;;;;;;;5042799;27;87602;-46
2022/06/04 12:49:39;;;;;;;;;;;;;;;;;;5042178;27;88925;-46
2022/06/04 12:52:05;;;;;;;;;;;;;;;;;;5045461;27;87139;-45
2022/06/04 12:54:31;;;;;;;;;;;;;;;;;;5042427;27;88247;-45
2022/06/04 12:56:57;;;;;;;;;;;;;;;;;;5042866;28;87063;-46
2022/06/04 12:59:23;;;;;;;;;;;;;;;;;;5043254;27;86890;-45
2022/06/04 13:01:49;;;;;;;;;;;;;;;;;;5042469;27;87157;-45
2022/06/04 13:04:15;;;;;;;;;;;;;;;;;;5042829;27;87177;-47
2022/06/04 13:06:41;;;;;;;;;;;;;;;;;;5042830;27;86882;-46
2022/06/04 13:09:07;;;;;;;;;;;;;;;;;;5042063;28;89603;-45
2022/06/04 13:11:33;;;;;;;;;;;;;;;;;;5042309;27;86961;-46
2022/06/04 13:13:59;;;;;;;;;;;;;;;;;;5044500;27;88139;-45
2022/06/04 13:16:27;;;;;;;;;;;;;;;;;;5042580;27;87261;-45
2022/06/04 13:18:55;;;;;;;;;;;;;;;;;;5042512;27;88852;-45
2022/06/04 13:21:21;;;;;;;;;;;;;;;;;;5041120;28;88512;-45
2022/06/04 13:23:47;;;;;;;;;;;;;;;;;;5041938;27;87234;-45
2022/06/04 13:26:13;;;;;;;;;;;;;;;;;;5042632;27;87548;-45
2022/06/04 13:28:39;;;;;;;;;;;;;;;;;;5042380;27;88260;-45
2022/06/04 13:31:04;;;;;;;;;;;;;;;;;;5042824;27;86359;-45
2022/06/04 13:33:30;;;;;;;;;;;;;;;;;;5042460;27;87146;-45
2022/06/04 13:35:56;;;;;;;;;;;;;;;;;;5044911;27;88046;-45
2022/06/04 13:38:22;;;;;;;;;;;;;;;;;;5041714;27;87982;-45
2022/06/04 13:40:49;;;;;;;;;;;;;;;;;;5041735;27;88068;-45
2022/06/04 13:43:15;;;;;;;;;;;;;;;;;;5045085;27;87166;-51
2022/06/04 13:45:41;;;;;;;;;;;;;;;;;;5026198;27;87183;-45
2022/06/04 13:48:07;;;;;;;;;;;;;;;;;;5025351;28;88433;-44
2022/06/04 13:50:33;;;;;;;;;;;;;;;;;;5024848;28;87221;-44
2022/06/04 13:52:59;;;;;;;;;;;;;;;;;;5025774;28;87047;-44
2022/06/04 13:55:25;;;;;;;;;;;;;;;;;;5028630;28;87312;-45
2022/06/04 13:57:51;;;;;;;;;;;;;;;;;;5025561;28;87034;-46
2022/06/04 16:53:18;;;;;;;;;;;25.60;60.20;;;;;;5044668;28;80224;-48
2022/06/04 16:55:43;;;;;;;;;;;25.50;60.10;;;;;;5043467;27;80267;-45
2022/06/04 16:58:09;;;;;;;;;;;25.50;60.20;;;;;;5043503;28;82384;-49
2022/06/04 17:00:48;;;;;;;;;;;25.50;60.60;;;;;;5043991;28;81334;-49
2022/06/04 17:03:23;;;;;;;;;;;25.50;61.20;;;;;;5043626;27;80254;-46
2022/06/04 17:06:07;;;;;;;;;;;25.50;61.10;;;;;;5043732;28;82352;-47
2022/06/04 17:08:50;;;;;;;;;;;25.50;61.00;;;;;;5043353;27;81488;-49
2022/06/04 17:11:35;;;;;;;;;;;25.60;61.10;;;;;;5042190;28;80288;-51
2022/06/04 17:14:00;;;;;;;;;;;25.50;61.00;;;;;;5045380;27;82177;-52
2022/06/04 17:16:49;;;;;;;;;;;25.60;60.60;;;;;;5043752;28;80298;-54
2022/06/04 17:19:14;;;;;;;;;;;25.60;60.00;;;;;;5022811;27;80804;-50
2022/06/04 17:21:52;;;;;;;;;;;25.60;60.50;;;;;;5043293;28;80917;-51
2022/06/04 17:24:21;;;;;;;;;;;25.70;60.30;;;;;;5042270;28;80372;-48
2022/06/04 17:26:50;;;;;;;;;;;25.70;60.60;;;;;;5040856;27;81950;-50
2022/06/04 17:29:25;;;;;;;;;;;25.50;60.30;;;;;;5041019;28;81793;-47
2022/06/04 17:31:53;;;;;;;;;;;25.60;60.00;;;;;;5041502;28;80846;-48
2022/06/04 17:34:18;;;;;;;;;;;25.60;60.30;;;;;;5041110;28;82184;-49
2022/06/04 17:36:49;;;;;;;;;;;25.60;60.30;;;;;;5044885;27;81070;-47
2022/06/04 17:39:38;;;;;;;;;;;25.60;60.50;;;;;;5042736;27;80714;-48
2022/06/04 17:42:04;;;;;;;;;;;25.60;60.60;;;;;;5043247;27;81341;-47
2022/06/04 17:44:29;;;;;;;;;;;25.60;60.60;;;;;;5043648;27;80742;-48
2022/06/04 17:46:55;;;;;;;;;;;25.60;60.80;;;;;;5042995;27;82448;-50
2022/06/04 17:49:21;;;;;;;;;;;25.50;60.90;;;;;;5042866;28;82857;-46
2022/06/04 17:51:49;;;;;;;;;;;25.50;61.00;;;;;;5042445;27;80286;-47
2022/06/04 17:54:15;;;;;;;;;;;25.50;61.10;;;;;;5043158;27;80168;-47
2022/06/04 17:56:41;;;;;;;;;;;25.50;61.10;;;;;;5043152;27;80295;-46
2022/06/04 17:59:07;;;;;;;;;;;25.50;61.20;;;;;;5045746;28;80414;-48
2022/06/04 18:01:33;;;;;;;;;;;25.50;61.20;;;;;;5042617;28;81396;-47
2022/06/04 18:03:59;;;;;;;;;;;25.60;61.40;;;;;;5033495;27;80431;-49
2022/06/04 18:06:24;;;;;;;;;;;25.60;61.40;;;;;;5029488;28;80565;-48
2022/06/04 18:08:50;;;;;;;;;;;25.60;61.50;;;;;;5029269;28;80509;-48
2022/06/04 18:11:15;;;;;;;;;;;25.50;61.40;;;;;;5029558;28;80400;-47
2022/06/04 18:13:41;;;;;;;;;;;25.50;61.40;;;;;;5029250;28;80744;-47
2022/06/04 18:16:08;;;;;;;;;;;25.50;61.60;;;;;;5028904;28;82153;-48
2022/06/04 18:18:34;;;;;;;;;;;25.50;61.50;;;;;;5029007;28;80366;-49
2022/06/04 18:21:00;;;;;;;;;;;25.50;61.80;;;;;;5031419;28;81873;-48
2022/06/04 18:23:25;;;;;;;;;;;25.50;61.70;;;;;;5029052;28;80172;-47
2022/06/04 18:25:51;;;;;;;;;;;25.50;61.70;;;;;;5029289;28;80701;-47
2022/06/04 18:28:16;;;;;;;;;;;25.50;61.70;;;;;;5029263;28;81367;-48
2022/06/04 18:30:44;;;;;;;;;;;25.50;61.80;;;;;;5028738;28;80267;-47
2022/06/04 18:33:10;;;;;;;;;;;25.50;61.80;;;;;;5028723;28;82116;-47
2022/06/04 18:35:36;;;;;;;;;;;25.50;61.80;;;;;;5028926;28;81467;-48
2022/06/04 18:38:02;;;;;;;;;;;25.50;62.00;;;;;;5027555;28;81651;-47
2022/06/04 18:40:30;;;;;;;;;;;25.50;62.00;;;;;;5028974;28;80275;-47
2022/06/04 18:56:41;;;;;;;;;;;25.50;62.40;;;;;;5028778;28;80557;-47
2022/06/04 18:59:07;;;;;;;;;;;25.50;62.40;;;;;;5028738;28;80276;-47
2022/06/04 19:01:34;;;;;;;;;;;25.50;62.40;;;;;;5028541;28;80869;-46
2022/06/04 19:04:01;;;;;;;;;;;25.50;62.50;;;;;;5028597;28;81331;-50
2022/06/04 19:06:27;;;;;;;;;;;25.50;62.50;;;;;;5030885;28;80270;-46
2022/06/04 19:08:52;;;;;;;;;;;25.50;62.60;;;;;;5028311;28;82604;-46
2022/06/04 19:14:02;;;;;;;;;;;25.50;62.60;;;;;;5028544;28;80043;-46
2022/06/04 19:16:30;;;;;;;;;;;25.50;62.60;;;;;;5027227;28;82779;-46
2022/06/04 19:18:57;;;;;;;;;;;25.50;62.70;;;;;;5027974;28;80320;-46
2022/06/04 19:26:53;;;;;;;;;;;25.50;62.80;;;;;;5030306;28;80658;-46
2022/06/04 19:29:19;;;;;;;;;;;25.50;62.80;;;;;;5028089;28;81396;-46
2022/06/04 19:31:45;;;;;;;;;;;25.50;62.80;;;;;;5027914;28;80297;-45
2022/06/04 19:34:11;;;;;;;;;;;25.50;62.90;;;;;;5028088;28;81568;-46
2022/06/04 19:36:36;;;;;;;;;;;25.50;62.90;;;;;;5028111;28;81189;-46
2022/06/04 19:39:03;;;;;;;;;;;25.50;62.90;;;;;;5028196;28;80378;-47
2022/06/04 19:41:29;;;;;;;;;;;25.50;63.00;;;;;;5027646;28;80740;-45
2022/06/04 19:43:55;;;;;;;;;;;25.50;63.00;;;;;;5027888;28;80878;-45
2022/06/04 19:46:21;;;;;;;;;;;25.50;63.00;;;;;;5028131;28;80301;-47
2022/06/04 19:48:46;;;;;;;;;;;25.40;63.00;;;;;;5030326;28;82428;-46